Time;durP1;ratioP1;P1;durP2;ratioP2;P2;SDS_P1;SDS_P2;PMS_P1;PMS_P2;Temp;Humidity;BMP_temperature;BMP_pressure;BME280_temperature;BME280_humidity;BME280_pressure;Samples;Min_cycle;Max_cycle;Signal;HPM_P1;HPM_P2
2021/05/17 00:01:33;;;;;;;2.20;0.40;;;;;;;;;;5011509;28;20496;-71
2021/05/17 00:04:02;;;;;;;1.75;0.40;;;;;;;;;;5010479;28;20046;-71
2021/05/17 00:06:29;;;;;;;2.22;0.40;;;;;;;;;;4994345;28;20057;-71
2021/05/17 00:08:56;;;;;;;2.20;0.40;;;;;;;;;;5010416;28;20108;-71
2021/05/17 00:11:23;;;;;;;2.15;0.63;;;;;;;;;;4996242;28;20081;-71
2021/05/17 00:13:49;;;;;;;1.42;0.38;;;;;;;;;;4990806;28;20093;-71
2021/05/17 00:16:17;;;;;;;0.70;0.40;;;;;;;;;;4991354;28;20476;-71
2021/05/17 00:18:43;;;;;;;0.52;0.40;;;;;;;;;;4991764;28;20109;-71
2021/05/17 00:21:10;;;;;;;2.08;0.35;;;;;;;;;;4991824;28;20054;-71
2021/05/17 00:23:37;;;;;;;1.27;0.45;;;;;;;;;;4991918;28;20077;-71
2021/05/17 00:26:04;;;;;;;1.23;0.30;;;;;;;;;;5002388;28;20050;-71
2021/05/17 00:28:31;;;;;;;1.70;0.60;;;;;;;;;;5011471;28;20045;-71
2021/05/17 00:30:57;;;;;;;1.35;0.50;;;;;;;;;;5010202;28;20479;-71
2021/05/17 00:33:24;;;;;;;1.50;0.30;;;;;;;;;;5011392;28;20053;-71
2021/05/17 00:35:51;;;;;;;0.90;0.35;;;;;;;;;;5009909;28;20041;-71
2021/05/17 00:38:18;;;;;;;1.50;0.73;;;;;;;;;;5012634;28;20046;-71
2021/05/17 00:40:46;;;;;;;3.53;0.70;;;;;;;;;;5016181;28;20089;-71
2021/05/17 00:43:13;;;;;;;4.30;0.60;;;;;;;;;;5017581;28;20100;-71
2021/05/17 00:45:40;;;;;;;2.10;0.50;;;;;;;;;;5016596;28;20081;-71
2021/05/17 00:48:08;;;;;;;0.40;0.20;;;;;;;;;;5001221;28;20468;-71
2021/05/17 00:50:34;;;;;;;0.47;0.20;;;;;;;;;;5016980;28;20046;-71
2021/05/17 00:53:01;;;;;;;3.75;0.50;;;;;;;;;;5016638;28;20132;-71
2021/05/17 00:55:28;;;;;;;2.83;0.50;;;;;;;;;;5016875;28;20195;-71
2021/05/17 00:57:55;;;;;;;2.13;0.47;;;;;;;;;;5000998;28;20050;-71
2021/05/17 01:00:24;;;;;;;2.60;0.50;;;;;;;;;;5017778;28;20053;-71
2021/05/17 01:02:51;;;;;;;2.60;0.60;;;;;;;;;;5018517;28;20099;-71
2021/05/17 01:05:18;;;;;;;0.55;0.40;;;;;;;;;;5001249;28;20488;-71
2021/05/17 01:07:49;;;;;;;0.63;0.30;;;;;;;;;;4999386;28;20100;-70
2021/05/17 01:10:17;;;;;;;0.70;0.40;;;;;;;;;;5013298;28;20062;-71
2021/05/17 01:12:46;;;;;;;1.67;0.70;;;;;;;;;;5013942;28;20053;-71
2021/05/17 01:15:14;;;;;;;2.65;0.50;;;;;;;;;;5013024;28;20042;-71
2021/05/17 01:17:41;;;;;;;1.63;0.40;;;;;;;;;;5014127;28;20080;-71
2021/05/17 01:20:12;;;;;;;1.08;0.50;;;;;;;;;;5014291;28;20046;-71
2021/05/17 01:23:01;;;;;;;1.33;0.35;;;;;;;;;;5017148;28;20112;-71
2021/05/17 01:25:28;;;;;;;1.95;0.50;;;;;;;;;;5016962;28;20543;-72
2021/05/17 01:27:55;;;;;;;1.70;0.40;;;;;;;;;;5016243;28;20053;-71
2021/05/17 01:30:23;;;;;;;1.60;0.32;;;;;;;;;;5017627;28;20049;-71
2021/05/17 01:32:55;;;;;;;1.75;0.30;;;;;;;;;;5015125;28;20057;-71
2021/05/17 01:35:22;;;;;;;2.55;0.93;;;;;;;;;;4996476;28;20161;-71
2021/05/17 01:37:49;;;;;;;0.85;0.35;;;;;;;;;;5013355;28;20069;-71
2021/05/17 01:40:20;;;;;;;2.05;0.43;;;;;;;;;;5015759;28;20100;-71
2021/05/17 01:42:48;;;;;;;0.50;0.30;;;;;;;;;;4996714;28;20519;-71
2021/05/17 01:45:14;;;;;;;1.60;0.30;;;;;;;;;;5003653;28;20097;-71
2021/05/17 01:47:42;;;;;;;1.75;0.40;;;;;;;;;;4976069;28;20104;-71
2021/05/17 01:50:11;;;;;;;1.08;0.50;;;;;;;;;;4992767;28;20054;-71
2021/05/17 01:52:38;;;;;;;1.55;0.60;;;;;;;;;;4992609;28;20050;-71
2021/05/17 01:55:06;;;;;;;1.27;0.50;;;;;;;;;;4976652;28;20112;-71
2021/05/17 01:57:33;;;;;;;2.08;0.60;;;;;;;;;;4992455;28;20203;-71
2021/05/17 02:00:00;;;;;;;2.45;0.63;;;;;;;;;;4992709;28;20099;-71
2021/05/17 02:02:27;;;;;;;2.75;0.40;;;;;;;;;;4992437;28;20050;-71
2021/05/17 02:04:54;;;;;;;0.73;0.45;;;;;;;;;;4992770;28;20046;-71
2021/05/17 02:07:24;;;;;;;1.17;0.50;;;;;;;;;;4992251;28;20054;-71
2021/05/17 02:09:53;;;;;;;1.30;0.45;;;;;;;;;;4992364;28;20109;-71
2021/05/17 02:12:23;;;;;;;2.28;0.70;;;;;;;;;;4975986;28;20576;-71
2021/05/17 02:14:52;;;;;;;3.33;0.55;;;;;;;;;;4993274;28;20477;-71
2021/05/17 02:17:20;;;;;;;0.40;0.40;;;;;;;;;;4993156;28;20493;-71
2021/05/17 02:19:47;;;;;;;0.77;0.40;;;;;;;;;;4992253;28;20126;-71
2021/05/17 02:22:18;;;;;;;3.17;0.50;;;;;;;;;;4993512;28;20473;-71
2021/05/17 02:24:46;;;;;;;0.57;0.30;;;;;;;;;;4992042;28;20050;-71
2021/05/17 02:27:17;;;;;;;4.72;1.05;;;;;;;;;;5002267;28;20504;-71
2021/05/17 02:29:44;;;;;;;0.43;0.43;;;;;;;;;;4995437;28;20488;-71
2021/05/17 02:32:22;;;;;;;2.53;0.40;;;;;;;;;;5011453;28;20054;-71
2021/05/17 02:34:49;;;;;;;1.13;0.30;;;;;;;;;;5011441;28;20049;-71
2021/05/17 02:37:16;;;;;;;1.30;0.70;;;;;;;;;;5011370;28;20049;-71
2021/05/17 02:39:43;;;;;;;0.30;0.25;;;;;;;;;;4994880;28;20054;-71
2021/05/17 02:42:13;;;;;;;0.77;0.40;;;;;;;;;;5011332;28;20049;-71
2021/05/17 02:44:40;;;;;;;0.55;0.20;;;;;;;;;;5011209;28;20050;-71
2021/05/17 02:47:08;;;;;;;0.28;0.20;;;;;;;;;;5012220;28;20054;-71
2021/05/17 02:49:35;;;;;;;2.15;0.38;;;;;;;;;;5011311;28;20054;-71
2021/05/17 02:52:02;;;;;;;3.35;0.35;;;;;;;;;;5011159;28;20161;-71
2021/05/17 02:54:30;;;;;;;2.75;0.20;;;;;;;;;;5010974;28;20046;-71
2021/05/17 02:56:57;;;;;;;0.75;0.68;;;;;;;;;;5010170;28;20049;-70
2021/05/17 02:59:36;;;;;;;0.70;0.40;;;;;;;;;;4992257;28;20517;-71
2021/05/17 03:02:07;;;;;;;0.88;0.38;;;;;;;;;;4991428;28;20567;-71
2021/05/17 03:04:37;;;;;;;1.00;0.43;;;;;;;;;;4975377;28;20100;-71
2021/05/17 03:07:08;;;;;;;0.63;0.20;;;;;;;;;;4991575;28;20093;-71
2021/05/17 03:09:36;;;;;;;1.95;0.50;;;;;;;;;;4991364;28;20096;-71
2021/05/17 03:12:03;;;;;;;0.88;0.38;;;;;;;;;;4991323;28;20112;-71
2021/05/17 03:14:31;;;;;;;0.93;0.20;;;;;;;;;;4975196;28;20093;-72
2021/05/17 03:16:57;;;;;;;0.57;0.20;;;;;;;;;;4990988;28;20108;-71
2021/05/17 03:19:25;;;;;;;1.08;0.30;;;;;;;;;;4975470;28;20077;-71
2021/05/17 03:21:54;;;;;;;1.38;0.40;;;;;;;;;;4991342;28;20128;-71
2021/05/17 03:24:21;;;;;;;3.38;0.68;;;;;;;;;;4991179;28;20433;-71
2021/05/17 03:26:48;;;;;;;0.25;0.20;;;;;;;;;;4974919;28;20104;-70
2021/05/17 03:29:15;;;;;;;0.75;0.20;;;;;;;;;;4991231;28;20046;-71
2021/05/17 03:31:42;;;;;;;1.17;0.40;;;;;;;;;;4992360;28;20051;-70
2021/05/17 03:34:08;;;;;;;1.25;0.30;;;;;;;;;;4998344;28;20046;-71
2021/05/17 03:36:35;;;;;;;0.68;0.35;;;;;;;;;;4990945;28;20042;-71
2021/05/17 03:39:02;;;;;;;0.52;0.22;;;;;;;;;;5011979;28;20057;-70
2021/05/17 03:41:28;;;;;;;1.73;0.40;;;;;;;;;;5010909;28;20088;-71
2021/05/17 03:43:55;;;;;;;1.23;0.50;;;;;;;;;;5010750;28;20112;-70
2021/05/17 03:46:21;;;;;;;2.88;0.43;;;;;;;;;;5010511;28;20100;-70
2021/05/17 03:48:48;;;;;;;1.23;0.30;;;;;;;;;;5010831;28;20065;-70
2021/05/17 03:51:15;;;;;;;0.50;0.30;;;;;;;;;;5012055;28;20058;-70
2021/05/17 03:53:41;;;;;;;2.65;0.30;;;;;;;;;;5041774;23;20078;-71
2021/05/17 03:56:08;;;;;;;0.95;0.30;;;;;;;;;;5010132;28;20051;-70
2021/05/17 03:58:34;;;;;;;1.27;0.30;;;;;;;;;;5010812;28;20062;-71
2021/05/17 04:01:01;;;;;;;0.80;0.20;;;;;;;;;;5010214;28;20057;-71
2021/05/17 04:03:28;;;;;;;0.43;0.32;;;;;;;;;;5010203;28;20109;-70
2021/05/17 04:13:35;;;;;;;2.88;0.50;;;;;;;;;;5012027;28;20050;-71
2021/05/17 04:16:02;;;;;;;1.05;0.30;;;;;;;;;;5013423;28;20101;-71
2021/05/17 04:18:29;;;;;;;1.10;0.30;;;;;;;;;;5015500;28;20077;-69
2021/05/17 04:20:55;;;;;;;2.63;0.40;;;;;;;;;;5013868;28;20112;-69
2021/05/17 04:23:24;;;;;;;0.93;0.30;;;;;;;;;;5012924;28;20077;-69
2021/05/17 04:25:51;;;;;;;1.83;0.68;;;;;;;;;;5012197;28;20053;-69
2021/05/17 04:28:18;;;;;;;0.57;0.20;;;;;;;;;;5011241;28;20050;-69
2021/05/17 04:30:45;;;;;;;0.60;0.30;;;;;;;;;;5007566;28;20058;-69
2021/05/17 04:33:12;;;;;;;0.60;0.50;;;;;;;;;;5009493;28;20050;-69
2021/05/17 04:35:38;;;;;;;1.55;0.70;;;;;;;;;;5019352;28;20042;-68
2021/05/17 04:38:05;;;;;;;2.53;0.30;;;;;;;;;;4996019;28;20089;-69
2021/05/17 04:40:31;;;;;;;2.55;0.30;;;;;;;;;;4995633;28;20498;-68
2021/05/17 04:42:58;;;;;;;1.70;0.47;;;;;;;;;;4995291;28;20094;-69
2021/05/17 04:45:25;;;;;;;0.95;0.20;;;;;;;;;;4995000;28;20085;-69
2021/05/17 04:47:51;;;;;;;1.30;0.30;;;;;;;;;;4995122;28;20050;-69
2021/05/17 04:50:18;;;;;;;1.25;0.22;;;;;;;;;;4995333;28;20077;-69
2021/05/17 04:52:45;;;;;;;1.23;0.40;;;;;;;;;;4994936;28;20086;-69
2021/05/17 04:55:11;;;;;;;0.85;0.30;;;;;;;;;;4994965;28;20505;-69
2021/05/17 04:57:38;;;;;;;3.08;0.40;;;;;;;;;;4994878;28;20082;-69
2021/05/17 05:00:09;;;;;;;3.17;0.68;;;;;;;;;;4995100;28;20106;-69
2021/05/17 05:02:36;;;;;;;2.28;0.32;;;;;;;;;;4994567;28;20085;-69
2021/05/17 05:05:03;;;;;;;1.27;0.50;;;;;;;;;;4994885;28;20129;-69
2021/05/17 05:07:29;;;;;;;1.00;0.50;;;;;;;;;;4994664;28;20050;-69
2021/05/17 05:09:56;;;;;;;2.95;0.30;;;;;;;;;;4994661;28;20104;-68
2021/05/17 05:12:22;;;;;;;1.38;0.50;;;;;;;;;;4994589;28;20054;-68
2021/05/17 05:14:49;;;;;;;1.25;0.20;;;;;;;;;;4994749;28;20046;-69
2021/05/17 05:17:15;;;;;;;2.22;0.30;;;;;;;;;;4994656;28;20520;-68
2021/05/17 05:19:42;;;;;;;0.70;0.20;;;;;;;;;;4994604;28;20050;-73
2021/05/17 05:22:08;;;;;;;0.75;0.20;;;;;;;;;;4994712;28;20078;-69
2021/05/17 05:24:35;;;;;;;2.33;0.30;;;;;;;;;;4993780;28;20082;-69
2021/05/17 05:27:14;;;;;;;1.55;0.43;;;;;;;;;;4994424;28;20108;-68
2021/05/17 05:34:35;;;;;;;1.80;0.40;;;;;;;;;;4993208;28;20105;-70
2021/05/17 05:37:02;;;;;;;1.55;0.22;;;;;;;;;;4993787;28;20050;-70
2021/05/17 05:39:30;;;;;;;2.85;0.60;;;;;;;;;;4982954;28;20050;-69
2021/05/17 05:41:56;;;;;;;3.40;0.40;;;;;;;;;;4991905;28;20394;-70
2021/05/17 05:44:23;;;;;;;0.35;0.30;;;;;;;;;;4992184;28;20101;-71
2021/05/17 05:46:49;;;;;;;2.70;0.10;;;;;;;;;;4995428;28;20105;-70
2021/05/17 05:49:16;;;;;;;3.15;0.40;;;;;;;;;;4993117;28;20050;-69
2021/05/17 05:51:43;;;;;;;0.90;0.68;;;;;;;;;;4991840;28;20057;-69
2021/05/17 05:54:10;;;;;;;0.10;0.10;;;;;;;;;;4992414;28;20051;-70
2021/05/17 05:56:37;;;;;;;4.22;0.47;;;;;;;;;;4991896;28;20092;-71
2021/05/17 05:59:03;;;;;;;1.42;0.20;;;;;;;;;;4992904;28;20485;-71
2021/05/17 06:01:30;;;;;;;1.40;0.30;;;;;;;;;;4990724;28;20125;-70
2021/05/17 06:03:57;;;;;;;0.30;0.20;;;;;;;;;;4991006;28;20050;-71
2021/05/17 06:06:23;;;;;;;1.05;0.45;;;;;;;;;;4992398;28;20094;-71
2021/05/17 06:08:50;;;;;;;0.73;0.22;;;;;;;;;;4992699;28;20125;-72
2021/05/17 06:11:17;;;;;;;0.98;0.30;;;;;;;;;;4992501;28;20089;-70
2021/05/17 06:13:46;;;;;;;0.50;0.15;;;;;;;;;;4992498;28;20054;-71
2021/05/17 06:16:13;;;;;;;3.45;0.30;;;;;;;;;;4993298;28;20501;-71
2021/05/17 06:18:39;;;;;;;0.30;0.20;;;;;;;;;;4993344;28;20046;-70
2021/05/17 06:21:06;;;;;;;0.60;0.30;;;;;;;;;;4993202;28;20489;-70
2021/05/17 06:23:34;;;;;;;4.50;1.70;;;;;;;;;;4990153;28;20157;-70
2021/05/17 06:26:00;;;;;;;2.47;1.45;;;;;;;;;;4991188;28;20050;-71
2021/05/17 06:28:27;;;;;;;1.60;0.57;;;;;;;;;;4991562;28;20402;-73
2021/05/17 06:31:00;;;;;;;2.00;1.00;;;;;;;;;;4991273;28;20078;-71
2021/05/17 06:33:28;;;;;;;0.50;0.38;;;;;;;;;;4991171;28;20089;-70
2021/05/17 06:35:56;;;;;;;1.90;0.32;;;;;;;;;;4990186;28;20466;-70
2021/05/17 06:38:24;;;;;;;1.05;0.17;;;;;;;;;;4990499;28;20054;-70
2021/05/17 06:40:53;;;;;;;0.85;0.20;;;;;;;;;;4991874;28;20079;-70
2021/05/17 06:43:19;;;;;;;2.15;0.30;;;;;;;;;;4991855;28;20422;-71
2021/05/17 06:45:46;;;;;;;0.80;0.20;;;;;;;;;;4991156;28;20175;-70
2021/05/17 06:48:13;;;;;;;0.80;0.20;;;;;;;;;;4990724;28;20049;-70
2021/05/17 06:50:41;;;;;;;1.10;0.20;;;;;;;;;;4990821;28;20057;-70
2021/05/17 06:53:08;;;;;;;2.63;0.40;;;;;;;;;;4990856;28;20089;-70
2021/05/17 06:55:43;;;;;;;0.63;0.30;;;;;;;;;;4990351;28;20050;-70
2021/05/17 06:58:35;;;;;;;0.35;0.10;;;;;;;;;;4990678;28;20524;-70
2021/05/17 07:01:00;;;;;;;1.55;0.30;;;;;;;;;;4990424;28;20046;-71
2021/05/17 07:03:29;;;;;;;0.77;0.30;;;;;;;;;;4990791;28;20088;-70
2021/05/17 07:05:58;;;;;;;2.45;1.05;;;;;;;;;;4990523;28;20158;-70
2021/05/17 07:13:54;;;;;;;1.92;0.38;;;;;;;;;;4990118;28;20489;-71
2021/05/17 07:16:20;;;;;;;0.10;0.10;;;;;;;;;;4990214;28;20148;-71
2021/05/17 07:18:47;;;;;;;0.65;0.20;;;;;;;;;;4990566;28;21116;-71
2021/05/17 07:23:41;;;;;;;0.20;0.20;;;;;;;;;;4990276;28;20101;-72
2021/05/17 07:26:16;;;;;;;0.52;0.20;;;;;;;;;;4987182;28;20046;-68
2021/05/17 07:28:45;;;;;;;0.20;0.20;;;;;;;;;;4977352;28;20086;-69
2021/05/17 07:31:11;;;;;;;0.88;0.20;;;;;;;;;;4987952;28;20054;-70
2021/05/17 07:33:42;;;;;;;4.13;0.38;;;;;;;;;;4988450;28;20101;-72
2021/05/17 07:36:09;;;;;;;0.68;0.30;;;;;;;;;;4989675;28;20077;-69
2021/05/17 07:38:36;;;;;;;0.95;0.30;;;;;;;;;;4989197;28;20081;-69
2021/05/17 07:41:03;;;;;;;0.50;0.10;;;;;;;;;;4988650;28;20137;-69
2021/05/17 07:43:30;;;;;;;0.77;0.20;;;;;;;;;;4990337;28;20053;-72
2021/05/17 07:45:56;;;;;;;2.75;0.45;;;;;;;;;;4991360;28;20158;-73
2021/05/17 07:48:23;;;;;;;0.88;0.50;;;;;;;;;;4994428;28;20210;-75
2021/05/17 07:50:50;;;;;;;1.55;0.20;;;;;;;;;;4995184;28;20050;-74
2021/05/17 07:53:17;;;;;;;2.67;0.30;;;;;;;;;;4977699;28;20424;-73
2021/05/17 07:55:44;;;;;;;0.90;0.20;;;;;;;;;;4977507;28;20050;-73
2021/05/17 07:58:11;;;;;;;3.55;0.40;;;;;;;;;;4994006;28;20093;-73
2021/05/17 08:00:38;;;;;;;0.70;0.20;;;;;;;;;;4993807;28;20047;-73
2021/05/17 08:03:05;;;;;;;3.03;0.40;;;;;;;;;;4995204;28;20073;-73
2021/05/17 08:05:51;;;;;;;0.77;0.32;;;;;;;;;;4977266;28;20053;-74
2021/05/17 08:08:18;;;;;;;1.13;0.40;;;;;;;;;;4995092;28;20082;-73
2021/05/17 08:10:45;;;;;;;1.13;0.38;;;;;;;;;;4994414;28;20505;-74
2021/05/17 08:13:11;;;;;;;1.05;0.30;;;;;;;;;;4994984;28;20074;-73
2021/05/17 08:15:45;;;;;;;2.13;0.32;;;;;;;;;;5008329;28;20078;-74
2021/05/17 08:18:11;;;;;;;1.95;0.40;;;;;;;;;;4995256;28;20092;-74
2021/05/17 08:20:38;;;;;;;1.92;0.50;;;;;;;;;;4993131;28;20046;-74
2021/05/17 08:23:05;;;;;;;2.28;0.40;;;;;;;;;;4992716;28;20417;-75
2021/05/17 08:25:31;;;;;;;0.35;0.10;;;;;;;;;;4992941;28;20077;-75
2021/05/17 08:27:59;;;;;;;0.90;0.13;;;;;;;;;;4994244;28;20077;-74
2021/05/17 08:30:25;;;;;;;2.50;0.52;;;;;;;;;;4991235;28;20042;-73
2021/05/17 08:32:52;;;;;;;1.25;0.35;;;;;;;;;;4994273;28;20062;-74
2021/05/17 08:35:18;;;;;;;0.50;0.20;;;;;;;;;;4992845;28;20416;-71
2021/05/17 08:37:45;;;;;;;0.77;0.40;;;;;;;;;;4994167;28;20102;-72
2021/05/17 08:40:13;;;;;;;0.93;0.30;;;;;;;;;;4992925;28;20104;-71
2021/05/17 08:42:41;;;;;;;0.60;0.20;;;;;;;;;;4976476;28;20050;-72
2021/05/17 08:45:08;;;;;;;2.85;0.52;;;;;;;;;;4994428;28;20050;-71
2021/05/17 08:47:34;;;;;;;1.77;0.30;;;;;;;;;;4993848;28;20046;-72
2021/05/17 08:50:02;;;;;;;1.58;0.20;;;;;;;;;;4976853;28;20105;-71
2021/05/17 08:52:29;;;;;;;0.82;0.20;;;;;;;;;;4993939;28;20050;-71
2021/05/17 08:54:55;;;;;;;7.22;1.15;;;;;;;;;;4993043;28;20046;-70
2021/05/17 08:57:22;;;;;;;1.60;0.30;;;;;;;;;;4992990;28;20082;-70
2021/05/17 08:59:50;;;;;;;1.05;0.40;;;;;;;;;;4993515;28;20425;-70
2021/05/17 09:02:17;;;;;;;2.78;0.73;;;;;;;;;;4992592;28;20120;-70
2021/05/17 09:05:13;;;;;;;2.20;0.75;;;;;;;;;;4992362;28;20125;-71
2021/05/17 09:07:44;;;;;;;1.73;0.63;;;;;;;;;;4989873;28;20104;-71
2021/05/17 09:10:18;;;;;;;0.80;0.30;;;;;;;;;;4979200;28;20089;-69
2021/05/17 09:12:57;;;;;;;3.92;0.80;;;;;;;;;;4992706;28;20441;-70
2021/05/17 09:15:37;;;;;;;2.53;0.50;;;;;;;;;;4993432;28;20054;-69
2021/05/17 09:18:08;;;;;;;2.05;0.60;;;;;;;;;;4994524;28;20050;-69
2021/05/17 09:20:37;;;;;;;2.33;0.50;;;;;;;;;;4986886;28;20074;-70
2021/05/17 09:23:05;;;;;;;2.03;0.40;;;;;;;;;;4997396;28;20050;-70
2021/05/17 09:25:31;;;;;;;0.55;0.30;;;;;;;;;;4995916;28;20089;-69
2021/05/17 09:28:07;;;;;;;4.32;0.20;;;;;;;;;;4993128;28;20120;-69
2021/05/17 09:30:46;;;;;;;1.00;0.25;;;;;;;;;;4993614;28;20464;-71
2021/05/17 09:33:15;;;;;;;1.85;0.20;;;;;;;;;;4993198;28;20050;-70
2021/05/17 09:35:44;;;;;;;0.50;0.30;;;;;;;;;;4980115;28;20054;-69
2021/05/17 09:38:22;;;;;;;1.35;0.47;;;;;;;;;;4993622;28;20057;-70
2021/05/17 09:41:00;;;;;;;1.23;0.50;;;;;;;;;;4991769;28;20559;-71
2021/05/17 09:43:27;;;;;;;0.20;0.10;;;;;;;;;;4981225;28;20104;-71
2021/05/17 09:45:54;;;;;;;0.90;0.20;;;;;;;;;;4992826;28;20085;-71
2021/05/17 09:48:22;;;;;;;1.70;0.50;;;;;;;;;;4992839;28;20051;-69
2021/05/17 09:50:54;;;;;;;1.15;0.25;;;;;;;;;;4992657;28;20050;-71
2021/05/17 09:53:26;;;;;;;3.25;0.70;;;;;;;;;;4992347;28;20050;-71
2021/05/17 09:55:53;;;;;;;1.77;0.70;;;;;;;;;;4993505;28;20074;-72
2021/05/17 09:58:33;;;;;;;1.23;0.20;;;;;;;;;;4993357;28;20049;-71
2021/05/17 10:01:09;;;;;;;2.55;0.30;;;;;;;;;;4990043;28;20050;-72
2021/05/17 10:03:44;;;;;;;1.17;0.30;;;;;;;;;;4992603;28;20050;-70
2021/05/17 10:06:12;;;;;;;0.20;0.15;;;;;;;;;;4985616;28;20497;-73
2021/05/17 10:08:39;;;;;;;0.63;0.40;;;;;;;;;;4990851;28;20089;-72
2021/05/17 10:11:06;;;;;;;0.30;0.20;;;;;;;;;;4990334;28;20086;-71
2021/05/17 10:13:34;;;;;;;1.13;0.38;;;;;;;;;;4992463;28;20100;-70
2021/05/17 10:16:07;;;;;;;1.13;0.30;;;;;;;;;;4991137;28;20070;-71
2021/05/17 10:18:34;;;;;;;0.77;0.38;;;;;;;;;;4990471;28;20081;-71
2021/05/17 10:21:02;;;;;;;0.70;0.20;;;;;;;;;;4990623;28;20054;-69
2021/05/17 10:23:29;;;;;;;2.35;0.30;;;;;;;;;;4992776;28;20136;-69
2021/05/17 10:26:23;;;;;;;1.38;0.30;;;;;;;;;;4987140;28;20469;-70
2021/05/17 10:28:52;;;;;;;0.88;0.10;;;;;;;;;;4984007;28;20050;-72
2021/05/17 10:31:20;;;;;;;0.45;0.20;;;;;;;;;;4988346;28;20395;-73
2021/05/17 10:34:02;;;;;;;1.15;0.38;;;;;;;;;;4989308;28;20053;-72
2021/05/17 10:36:59;;;;;;;0.28;0.20;;;;;;;;;;4989839;28;20055;-72
2021/05/17 10:39:40;;;;;;;0.10;0.10;;;;;;;;;;4991488;28;20054;-71
2021/05/17 10:48:11;;;;;;;0.93;0.20;;;;;;;;;;4990518;28;20124;-71
2021/05/17 10:50:39;;;;;;;0.47;0.20;;;;;;;;;;4983665;28;20058;-73
2021/05/17 10:53:06;;;;;;;1.42;0.10;;;;;;;;;;4991341;28;20072;-72
2021/05/17 10:55:47;;;;;;;1.05;0.30;;;;;;;;;;4975600;28;20046;-71
2021/05/17 11:00:21;;;;;;;0.55;0.10;;;;;;;;;;4991692;28;20043;-73
2021/05/17 11:01:25;;;;;;;0.65;0.20;;;;;;;;;;4991516;28;20490;-73
2021/05/17 11:04:23;;;;;;;1.23;0.20;;;;;;;;;;4972573;28;20093;-71
2021/05/17 11:07:24;;;;;;;1.23;0.30;;;;;;;;;;4990268;28;20054;-72
2021/05/17 11:09:52;;;;;;;0.80;0.32;;;;;;;;;;4991394;28;20104;-71
2021/05/17 11:12:24;;;;;;;0.90;0.30;;;;;;;;;;4991057;28;20064;-71
2021/05/17 11:15:09;;;;;;;1.58;0.30;;;;;;;;;;4992896;28;20047;-74
2021/05/17 11:17:55;;;;;;;2.40;0.50;;;;;;;;;;4991236;28;20148;-71
2021/05/17 11:23:25;;;;;;;3.05;0.40;;;;;;;;;;4983525;28;20057;-73
2021/05/17 11:31:14;;;;;;;0.25;0.20;;;;;;;;;;4991884;28;20054;-72
2021/05/17 11:34:01;;;;;;;1.25;0.40;;;;;;;;;;4987549;28;20082;-71
2021/05/17 11:36:34;;;;;;;0.38;0.20;;;;;;;;;;4979730;28;20117;-72
2021/05/17 11:39:14;;;;;;;1.73;0.35;;;;;;;;;;4988364;28;20141;-71
2021/05/17 11:41:48;;;;;;;1.83;0.50;;;;;;;;;;4990784;28;20446;-70
2021/05/17 11:44:21;;;;;;;2.72;0.98;;;;;;;;;;4991933;28;20101;-71
2021/05/17 11:47:07;;;;;;;2.70;0.40;;;;;;;;;;4990275;28;20468;-72
2021/05/17 11:49:44;;;;;;;3.28;1.00;;;;;;;;;;4990085;28;20078;-70
2021/05/17 11:52:13;;;;;;;3.73;0.50;;;;;;;;;;4990779;28;20054;-72
2021/05/17 11:54:49;;;;;;;5.55;1.23;;;;;;;;;;5009229;28;20107;-71
2021/05/17 11:57:17;;;;;;;2.33;0.60;;;;;;;;;;4991595;28;20038;-72
2021/05/17 11:59:47;;;;;;;3.60;0.80;;;;;;;;;;4952017;28;20517;-73
2021/05/17 12:02:14;;;;;;;3.25;1.25;;;;;;;;;;4989612;28;20430;-72
2021/05/17 12:04:42;;;;;;;1.52;0.60;;;;;;;;;;4990685;28;20105;-71
2021/05/17 12:07:13;;;;;;;1.42;0.73;;;;;;;;;;4990928;28;20081;-70
2021/05/17 12:09:51;;;;;;;3.78;1.05;;;;;;;;;;4990469;28;20058;-70
2021/05/17 12:12:18;;;;;;;2.08;0.50;;;;;;;;;;4987199;28;20054;-70
2021/05/17 12:14:52;;;;;;;1.55;0.47;;;;;;;;;;4990532;28;20129;-70
2021/05/17 12:17:20;;;;;;;1.23;0.50;;;;;;;;;;4993497;28;20042;-71
2021/05/17 12:19:58;;;;;;;0.40;0.40;;;;;;;;;;4991293;28;20097;-71
2021/05/17 12:22:32;;;;;;;1.88;0.30;;;;;;;;;;4990475;28;20501;-70
2021/05/17 12:24:59;;;;;;;1.73;0.47;;;;;;;;;;4988153;28;20042;-71
2021/05/17 12:27:27;;;;;;;3.30;0.50;;;;;;;;;;4990907;28;20105;-70
2021/05/17 12:29:57;;;;;;;2.38;0.40;;;;;;;;;;4990683;28;20073;-71
2021/05/17 12:32:34;;;;;;;0.68;0.30;;;;;;;;;;4990196;28;20124;-70
2021/05/17 12:35:09;;;;;;;1.40;0.20;;;;;;;;;;4993972;28;20531;-70
2021/05/17 12:37:47;;;;;;;1.15;0.28;;;;;;;;;;4983601;28;20166;-70
2021/05/17 12:40:34;;;;;;;1.25;0.15;;;;;;;;;;4983265;28;20096;-70
2021/05/17 12:43:07;;;;;;;0.40;0.13;;;;;;;;;;4973790;28;20109;-70
2021/05/17 12:45:35;;;;;;;0.60;0.20;;;;;;;;;;4993815;28;20480;-71
2021/05/17 12:48:08;;;;;;;0.60;0.20;;;;;;;;;;4995326;28;20105;-70
2021/05/17 12:50:34;;;;;;;0.57;0.10;;;;;;;;;;4995148;28;20100;-70
2021/05/17 12:53:01;;;;;;;0.10;0.10;;;;;;;;;;4994840;28;20417;-70
2021/05/17 12:55:27;;;;;;;0.20;0.00;;;;;;;;;;4994597;28;20481;-70
2021/05/17 12:57:56;;;;;;;1.08;0.10;;;;;;;;;;4993786;28;20484;-70
2021/05/17 13:00:43;;;;;;;1.13;0.22;;;;;;;;;;4994945;28;20489;-71
2021/05/17 13:03:28;;;;;;;0.08;0.00;;;;;;;;;;4994529;28;20054;-70
2021/05/17 13:06:25;;;;;;;0.10;0.10;;;;;;;;;;4994480;28;20046;-71
2021/05/17 13:09:06;;;;;;;0.10;0.10;;;;;;;;;;4992687;28;20074;-70
2021/05/17 13:11:43;;;;;;;0.43;0.10;;;;;;;;;;4994569;28;20093;-71
2021/05/17 13:14:09;;;;;;;0.20;0.10;;;;;;;;;;4994763;28;20413;-70
2021/05/17 13:16:40;;;;;;;0.10;0.08;;;;;;;;;;4994835;28;20413;-70
2021/05/17 13:30:08;;;;;;;0.28;0.10;;;;;;;;;;4994624;28;20089;-70
2021/05/17 13:32:40;;;;;;;0.10;0.10;;;;;;;;;;4994293;28;20445;-70
2021/05/17 13:35:11;;;;;;;2.53;0.28;;;;;;;;;;4994516;28;20108;-70
2021/05/17 13:37:38;;;;;;;4.25;0.40;;;;;;;;;;4994171;28;20093;-71
2021/05/17 13:40:07;;;;;;;0.40;0.20;;;;;;;;;;4994360;28;20046;-70
2021/05/17 13:42:34;;;;;;;0.38;0.32;;;;;;;;;;4994065;28;20050;-70
2021/05/17 13:45:00;;;;;;;1.80;0.57;;;;;;;;;;4993397;28;20077;-70
2021/05/17 13:47:27;;;;;;;0.82;0.50;;;;;;;;;;4993928;28;20046;-70
2021/05/17 13:49:54;;;;;;;0.85;0.50;;;;;;;;;;4994149;28;20108;-70
2021/05/17 13:52:20;;;;;;;2.58;0.60;;;;;;;;;;4993868;28;20058;-70
2021/05/17 13:54:47;;;;;;;0.63;0.63;;;;;;;;;;4993796;28;20051;-70
2021/05/17 13:57:14;;;;;;;0.50;0.43;;;;;;;;;;4993531;28;20050;-71
2021/05/17 13:59:43;;;;;;;1.10;0.55;;;;;;;;;;4990533;28;20057;-70
2021/05/17 14:02:10;;;;;;;1.67;0.50;;;;;;;;;;4993723;28;20050;-69
2021/05/17 14:04:36;;;;;;;0.73;0.30;;;;;;;;;;4989042;28;20089;-70
2021/05/17 14:07:03;;;;;;;3.45;0.30;;;;;;;;;;4994826;28;20117;-70
2021/05/17 14:09:29;;;;;;;1.75;0.13;;;;;;;;;;4991637;28;20498;-71
2021/05/17 14:11:58;;;;;;;1.00;0.43;;;;;;;;;;4993090;28;20119;-70
2021/05/17 14:14:24;;;;;;;1.08;0.20;;;;;;;;;;4991828;28;20051;-69
2021/05/17 14:16:57;;;;;;;0.65;0.40;;;;;;;;;;4990908;28;20050;-69
2021/05/17 14:19:24;;;;;;;2.40;0.80;;;;;;;;;;4993004;28;20054;-70
2021/05/17 14:21:54;;;;;;;1.20;1.10;;;;;;;;;;4990953;28;20054;-69
2021/05/17 14:24:21;;;;;;;0.95;0.40;;;;;;;;;;4992893;28;20465;-69
2021/05/17 14:26:48;;;;;;;0.98;0.43;;;;;;;;;;4990352;28;20050;-69
2021/05/17 14:29:14;;;;;;;0.32;0.32;;;;;;;;;;4992338;28;20101;-70
2021/05/17 14:31:41;;;;;;;0.60;0.17;;;;;;;;;;4991826;28;20042;-69
2021/05/17 14:34:08;;;;;;;0.25;0.17;;;;;;;;;;4988906;28;20046;-70
2021/05/17 14:36:35;;;;;;;0.28;0.20;;;;;;;;;;4990559;28;20109;-70
2021/05/17 14:39:05;;;;;;;2.40;0.40;;;;;;;;;;4992776;28;20129;-70
2021/05/17 14:41:32;;;;;;;4.57;0.40;;;;;;;;;;4990903;28;20287;-69
2021/05/17 14:43:59;;;;;;;0.98;0.30;;;;;;;;;;4992558;28;20085;-68
2021/05/17 14:46:25;;;;;;;1.10;0.80;;;;;;;;;;4992540;28;20112;-69
2021/05/17 14:48:52;;;;;;;1.05;0.40;;;;;;;;;;4992931;28;20078;-70
2021/05/17 14:51:23;;;;;;;1.10;0.40;;;;;;;;;;4993212;28;20096;-69
2021/05/17 14:53:49;;;;;;;0.90;0.63;;;;;;;;;;4992565;28;20488;-70
2021/05/17 14:56:17;;;;;;;0.63;0.30;;;;;;;;;;4991837;28;20429;-69
2021/05/17 14:58:44;;;;;;;2.83;0.70;;;;;;;;;;4987685;28;20461;-78
2021/05/17 15:01:10;;;;;;;1.77;0.55;;;;;;;;;;4980708;28;20046;-71
2021/05/17 15:03:37;;;;;;;2.03;1.13;;;;;;;;;;4991853;28;20464;-71
2021/05/17 15:06:04;;;;;;;2.47;1.27;;;;;;;;;;4992266;28;20051;-72
2021/05/17 15:08:30;;;;;;;2.90;1.02;;;;;;;;;;4991630;28;20046;-71
2021/05/17 15:10:57;;;;;;;2.75;1.15;;;;;;;;;;4991487;28;20517;-71
2021/05/17 15:13:23;;;;;;;2.88;1.33;;;;;;;;;;4991226;28;20050;-70
2021/05/17 15:15:50;;;;;;;0.45;0.25;;;;;;;;;;4991049;28;20521;-72
2021/05/17 15:18:17;;;;;;;2.90;1.40;;;;;;;;;;4991437;28;20398;-71
2021/05/17 15:20:44;;;;;;;3.78;1.73;;;;;;;;;;4991203;28;20073;-70
2021/05/17 15:23:25;;;;;;;1.50;1.02;;;;;;;;;;4989746;28;20057;-71
2021/05/17 15:25:52;;;;;;;1.23;0.85;;;;;;;;;;4990555;28;20046;-71
2021/05/17 15:28:19;;;;;;;1.30;0.82;;;;;;;;;;5006059;28;20497;-70
2021/05/17 15:30:46;;;;;;;1.42;0.85;;;;;;;;;;4991097;28;20064;-69
2021/05/17 15:33:13;;;;;;;3.88;1.55;;;;;;;;;;4990520;28;20086;-72
2021/05/17 15:35:40;;;;;;;0.80;0.40;;;;;;;;;;4990741;28;20468;-71
2021/05/17 15:38:08;;;;;;;1.23;0.63;;;;;;;;;;4983721;28;20046;-71
2021/05/17 15:40:37;;;;;;;1.05;0.80;;;;;;;;;;4982064;28;20078;-71
2021/05/17 15:43:04;;;;;;;0.52;0.40;;;;;;;;;;4991391;28;20050;-71